sensor_id;sensor_type;location;lat;lon;timestamp;pressure;altitude;pressure_sealevel;temperature;humidity
64368;BME280;50692;53.314;-6.300;2022-11-20T00:02:32;100154.34;;;8.88;88.98
64368;BME280;50692;53.314;-6.300;2022-11-20T00:05:19;100166.53;;;8.91;89.13
64368;BME280;50692;53.314;-6.300;2022-11-20T00:08:06;100172.06;;;8.86;89.41
64368;BME280;50692;53.314;-6.300;2022-11-20T00:10:52;100178.94;;;8.88;89.15
64368;BME280;50692;53.314;-6.300;2022-11-20T00:13:38;100177.38;;;8.84;89.07
64368;BME280;50692;53.314;-6.300;2022-11-20T00:16:27;100172.63;;;8.75;88.92
64368;BME280;50692;53.314;-6.300;2022-11-20T00:19:13;100186.06;;;8.71;88.65
64368;BME280;50692;53.314;-6.300;2022-11-20T00:21:59;100179.75;;;8.57;89.33
64368;BME280;50692;53.314;-6.300;2022-11-20T00:24:44;100182.56;;;8.70;88.56
64368;BME280;50692;53.314;-6.300;2022-11-20T00:27:30;100189.44;;;8.73;88.28
64368;BME280;50692;53.314;-6.300;2022-11-20T00:30:16;100179.31;;;8.65;88.14
64368;BME280;50692;53.314;-6.300;2022-11-20T00:33:02;100182.66;;;8.69;87.86
64368;BME280;50692;53.314;-6.300;2022-11-20T00:35:48;100185.38;;;8.67;87.59
64368;BME280;50692;53.314;-6.300;2022-11-20T00:38:34;100187.31;;;8.63;87.51
64368;BME280;50692;53.314;-6.300;2022-11-20T00:41:20;100197.94;;;8.62;87.18
64368;BME280;50692;53.314;-6.300;2022-11-20T00:44:06;100205.94;;;8.60;87.17
64368;BME280;50692;53.314;-6.300;2022-11-20T00:46:54;100191.97;;;8.58;87.07
64368;BME280;50692;53.314;-6.300;2022-11-20T00:49:39;100198.03;;;8.60;86.72
64368;BME280;50692;53.314;-6.300;2022-11-20T00:52:27;100207.78;;;8.58;86.65
64368;BME280;50692;53.314;-6.300;2022-11-20T00:55:12;100213.03;;;8.58;86.52
64368;BME280;50692;53.314;-6.300;2022-11-20T00:57:58;100208.78;;;8.56;86.61
64368;BME280;50692;53.314;-6.300;2022-11-20T01:00:44;100215.84;;;8.55;86.50
64368;BME280;50692;53.314;-6.300;2022-11-20T01:03:34;100215.84;;;8.55;86.30
64368;BME280;50692;53.314;-6.300;2022-11-20T01:06:32;100213.28;;;8.54;86.30
64368;BME280;50692;53.314;-6.300;2022-11-20T01:09:18;100219.50;;;8.53;86.30
64368;BME280;50692;53.314;-6.300;2022-11-20T01:12:04;100220.34;;;8.53;86.27
64368;BME280;50692;53.314;-6.300;2022-11-20T01:14:50;100213.34;;;8.52;86.11
64368;BME280;50692;53.314;-6.300;2022-11-20T01:17:36;100219.72;;;8.48;86.32
64368;BME280;50692;53.314;-6.300;2022-11-20T01:20:21;100209.53;;;8.42;86.50
64368;BME280;50692;53.314;-6.300;2022-11-20T01:23:07;100206.19;;;8.38;86.61
64368;BME280;50692;53.314;-6.300;2022-11-20T01:25:53;100201.13;;;8.34;86.96
64368;BME280;50692;53.314;-6.300;2022-11-20T01:28:39;100208.47;;;8.27;87.40
64368;BME280;50692;53.314;-6.300;2022-11-20T01:31:28;100197.59;;;8.17;87.49
64368;BME280;50692;53.314;-6.300;2022-11-20T01:34:17;100214.84;;;8.23;87.60
64368;BME280;50692;53.314;-6.300;2022-11-20T01:37:03;100216.56;;;8.24;87.38
64368;BME280;50692;53.314;-6.300;2022-11-20T01:39:49;100218.31;;;8.24;87.28
64368;BME280;50692;53.314;-6.300;2022-11-20T01:42:35;100213.16;;;8.22;87.32
64368;BME280;50692;53.314;-6.300;2022-11-20T01:49:39;100214.16;;;8.20;87.56
64368;BME280;50692;53.314;-6.300;2022-11-20T01:52:52;100224.69;;;8.20;87.69
64368;BME280;50692;53.314;-6.300;2022-11-20T01:55:40;100225.69;;;8.17;87.73
64368;BME280;50692;53.314;-6.300;2022-11-20T01:58:33;100228.25;;;8.18;87.50
64368;BME280;50692;53.314;-6.300;2022-11-20T02:01:21;100229.25;;;8.16;87.37
64368;BME280;50692;53.314;-6.300;2022-11-20T02:04:08;100225.22;;;8.09;87.51
64368;BME280;50692;53.314;-6.300;2022-11-20T02:06:59;100231.28;;;8.11;87.64
64368;BME280;50692;53.314;-6.300;2022-11-20T02:09:45;100231.19;;;8.12;87.27
64368;BME280;50692;53.314;-6.300;2022-11-20T02:12:31;100227.00;;;8.08;87.48
64368;BME280;50692;53.314;-6.300;2022-11-20T02:15:35;100219.41;;;8.02;87.51
64368;BME280;50692;53.314;-6.300;2022-11-20T02:18:22;100220.19;;;8.04;87.38
64368;BME280;50692;53.314;-6.300;2022-11-20T02:21:29;100220.09;;;8.06;87.36
64368;BME280;50692;53.314;-6.300;2022-11-20T02:24:18;100246.28;;;8.09;87.30
64368;BME280;50692;53.314;-6.300;2022-11-20T02:27:05;100245.19;;;8.13;87.15
64368;BME280;50692;53.314;-6.300;2022-11-20T02:29:56;100251.34;;;8.13;86.89
64368;BME280;50692;53.314;-6.300;2022-11-20T02:32:44;100253.97;;;8.13;86.89
64368;BME280;50692;53.314;-6.300;2022-11-20T02:38:16;100223.13;;;8.15;86.37
64368;BME280;50692;53.314;-6.300;2022-11-20T02:41:01;100234.75;;;8.11;85.93
64368;BME280;50692;53.314;-6.300;2022-11-20T02:43:47;100229.25;;;8.16;85.08
64368;BME280;50692;53.314;-6.300;2022-11-20T02:46:33;100223.97;;;8.16;84.39
64368;BME280;50692;53.314;-6.300;2022-11-20T02:49:19;100209.38;;;8.10;84.00
64368;BME280;50692;53.314;-6.300;2022-11-20T02:52:05;100213.59;;;8.13;83.68
64368;BME280;50692;53.314;-6.300;2022-11-20T02:54:51;100222.72;;;8.06;83.64
64368;BME280;50692;53.314;-6.300;2022-11-20T02:57:37;100212.44;;;8.01;83.25
64368;BME280;50692;53.314;-6.300;2022-11-20T03:00:23;100218.66;;;8.00;82.99
64368;BME280;50692;53.314;-6.300;2022-11-20T03:03:08;100220.59;;;7.97;82.74
64368;BME280;50692;53.314;-6.300;2022-11-20T03:05:54;100223.50;;;7.90;82.71
64368;BME280;50692;53.314;-6.300;2022-11-20T03:08:40;100221.03;;;7.87;82.27
64368;BME280;50692;53.314;-6.300;2022-11-20T03:11:26;100217.53;;;7.87;81.77
64368;BME280;50692;53.314;-6.300;2022-11-20T03:14:11;100220.31;;;7.84;81.38
64368;BME280;50692;53.314;-6.300;2022-11-20T03:16:57;100229.31;;;7.80;81.07
64368;BME280;50692;53.314;-6.300;2022-11-20T03:19:43;100232.78;;;7.80;80.88
64368;BME280;50692;53.314;-6.300;2022-11-20T03:22:29;100217.94;;;7.79;80.43
64368;BME280;50692;53.314;-6.300;2022-11-20T03:25:15;100220.28;;;7.85;79.46
64368;BME280;50692;53.314;-6.300;2022-11-20T03:28:01;100199.13;;;7.87;78.84
64368;BME280;50692;53.314;-6.300;2022-11-20T03:30:47;100195.56;;;7.88;78.92
64368;BME280;50692;53.314;-6.300;2022-11-20T03:33:33;100199.06;;;7.88;78.96
64368;BME280;50692;53.314;-6.300;2022-11-20T03:36:21;100183.19;;;7.90;79.25
64368;BME280;50692;53.314;-6.300;2022-11-20T03:39:07;100194.72;;;7.87;79.55
64368;BME280;50692;53.314;-6.300;2022-11-20T03:41:53;100194.00;;;7.84;79.68
64368;BME280;50692;53.314;-6.300;2022-11-20T03:44:39;100197.66;;;7.81;79.79
64368;BME280;50692;53.314;-6.300;2022-11-20T03:47:25;100184.91;;;7.74;80.02
64368;BME280;50692;53.314;-6.300;2022-11-20T03:50:12;100180.53;;;7.73;79.91
64368;BME280;50692;53.314;-6.300;2022-11-20T03:52:59;100184.19;;;7.70;79.81
64368;BME280;50692;53.314;-6.300;2022-11-20T03:55:49;100197.19;;;7.73;79.33
64368;BME280;50692;53.314;-6.300;2022-11-20T03:58:36;100194.50;;;7.75;79.00
64368;BME280;50692;53.314;-6.300;2022-11-20T04:01:25;100187.22;;;7.80;78.64
64368;BME280;50692;53.314;-6.300;2022-11-20T04:04:11;100188.94;;;7.81;78.27
64368;BME280;50692;53.314;-6.300;2022-11-20T04:06:57;100189.97;;;7.77;78.35
64368;BME280;50692;53.314;-6.300;2022-11-20T04:09:43;100192.63;;;7.77;78.22
64368;BME280;50692;53.314;-6.300;2022-11-20T04:12:32;100189.13;;;7.76;78.30
64368;BME280;50692;53.314;-6.300;2022-11-20T04:15:17;100189.97;;;7.77;78.58
64368;BME280;50692;53.314;-6.300;2022-11-20T04:18:03;100179.78;;;7.71;78.65
64368;BME280;50692;53.314;-6.300;2022-11-20T04:20:49;100169.47;;;7.66;79.02
64368;BME280;50692;53.314;-6.300;2022-11-20T04:23:35;100174.03;;;7.62;79.11
64368;BME280;50692;53.314;-6.300;2022-11-20T04:26:23;100184.41;;;7.65;79.76
64368;BME280;50692;53.314;-6.300;2022-11-20T04:29:11;100190.19;;;7.55;80.17
64368;BME280;50692;53.314;-6.300;2022-11-20T04:31:57;100197.88;;;7.59;81.11
64368;BME280;50692;53.314;-6.300;2022-11-20T04:34:43;100200.66;;;7.56;81.92
64368;BME280;50692;53.314;-6.300;2022-11-20T04:37:28;100221.00;;;7.53;82.70
64368;BME280;50692;53.314;-6.300;2022-11-20T04:40:14;100207.75;;;7.54;82.95
64368;BME280;50692;53.314;-6.300;2022-11-20T04:43:00;100225.69;;;7.46;83.42
64368;BME280;50692;53.314;-6.300;2022-11-20T04:45:51;100222.06;;;7.49;83.68
64368;BME280;50692;53.314;-6.300;2022-11-20T04:48:37;100226.63;;;7.45;83.94
64368;BME280;50692;53.314;-6.300;2022-11-20T04:51:23;100230.28;;;7.41;84.22
64368;BME280;50692;53.314;-6.300;2022-11-20T04:54:11;100226.13;;;7.37;84.42
64368;BME280;50692;53.314;-6.300;2022-11-20T04:56:56;100242.75;;;7.37;84.26
64368;BME280;50692;53.314;-6.300;2022-11-20T04:59:42;100237.69;;;7.33;84.31
64368;BME280;50692;53.314;-6.300;2022-11-20T05:02:30;100230.81;;;7.30;84.44
64368;BME280;50692;53.314;-6.300;2022-11-20T05:05:16;100229.75;;;7.34;84.15
64368;BME280;50692;53.314;-6.300;2022-11-20T05:08:02;100230.88;;;7.29;84.12
64368;BME280;50692;53.314;-6.300;2022-11-20T05:10:48;100240.47;;;7.30;83.85
64368;BME280;50692;53.314;-6.300;2022-11-20T05:13:34;100230.53;;;7.17;83.88
64368;BME280;50692;53.314;-6.300;2022-11-20T05:16:22;100246.75;;;7.27;83.83
64368;BME280;50692;53.314;-6.300;2022-11-20T05:19:08;100247.59;;;7.28;83.61
64368;BME280;50692;53.314;-6.300;2022-11-20T05:21:54;100256.25;;;7.30;83.44
64368;BME280;50692;53.314;-6.300;2022-11-20T05:24:40;100255.41;;;7.29;83.13
64368;BME280;50692;53.314;-6.300;2022-11-20T05:27:26;100264.22;;;7.28;83.08
64368;BME280;50692;53.314;-6.300;2022-11-20T05:30:12;100260.94;;;7.23;83.09
64368;BME280;50692;53.314;-6.300;2022-11-20T05:32:58;100256.38;;;7.27;82.87
64368;BME280;50692;53.314;-6.300;2022-11-20T05:35:44;100255.50;;;7.28;82.40
64368;BME280;50692;53.314;-6.300;2022-11-20T05:38:30;100250.59;;;7.20;82.47
64368;BME280;50692;53.314;-6.300;2022-11-20T05:41:18;100244.31;;;7.22;82.34
64368;BME280;50692;53.314;-6.300;2022-11-20T05:44:04;100253.28;;;7.18;82.33
64368;BME280;50692;53.314;-6.300;2022-11-20T05:46:50;100233.22;;;7.16;82.38
64368;BME280;50692;53.314;-6.300;2022-11-20T05:49:36;100255.41;;;7.10;82.65
64368;BME280;50692;53.314;-6.300;2022-11-20T05:52:21;100250.19;;;7.09;82.65
64368;BME280;50692;53.314;-6.300;2022-11-20T05:55:07;100256.53;;;7.05;82.98
64368;BME280;50692;53.314;-6.300;2022-11-20T05:57:54;100248.72;;;7.03;83.02
64368;BME280;50692;53.314;-6.300;2022-11-20T06:00:40;100249.66;;;7.02;83.13
64368;BME280;50692;53.314;-6.300;2022-11-20T06:03:26;100240.03;;;7.01;83.42
64368;BME280;50692;53.314;-6.300;2022-11-20T06:06:12;100231.25;;;7.02;83.27
64368;BME280;50692;53.314;-6.300;2022-11-20T06:08:58;100232.88;;;7.05;83.05
64368;BME280;50692;53.314;-6.300;2022-11-20T06:11:44;100231.09;;;7.05;83.09
64368;BME280;50692;53.314;-6.300;2022-11-20T06:14:30;100232.88;;;7.05;83.02
64368;BME280;50692;53.314;-6.300;2022-11-20T06:17:16;100219.88;;;7.02;82.90
64368;BME280;50692;53.314;-6.300;2022-11-20T06:20:01;100218.13;;;7.02;82.86
64368;BME280;50692;53.314;-6.300;2022-11-20T06:22:47;100220.88;;;6.99;82.95
64368;BME280;50692;53.314;-6.300;2022-11-20T06:25:37;100194.63;;;6.99;82.76
64368;BME280;50692;53.314;-6.300;2022-11-20T06:28:23;100202.50;;;6.99;82.92
64368;BME280;50692;53.314;-6.300;2022-11-20T06:31:11;100209.53;;;6.99;82.66
64368;BME280;50692;53.314;-6.300;2022-11-20T06:33:57;100196.59;;;6.94;82.81
64368;BME280;50692;53.314;-6.300;2022-11-20T06:36:43;100202.56;;;6.97;82.66
64368;BME280;50692;53.314;-6.300;2022-11-20T06:39:29;100192.88;;;6.98;82.57
64368;BME280;50692;53.314;-6.300;2022-11-20T06:42:14;100209.59;;;6.97;82.61
64368;BME280;50692;53.314;-6.300;2022-11-20T06:45:00;100208.81;;;6.95;82.53
64368;BME280;50692;53.314;-6.300;2022-11-20T06:47:46;100190.25;;;6.98;82.39
64368;BME280;50692;53.314;-6.300;2022-11-20T06:50:32;100203.25;;;7.01;82.37
64368;BME280;50692;53.314;-6.300;2022-11-20T06:53:18;100197.28;;;6.97;82.25
64368;BME280;50692;53.314;-6.300;2022-11-20T06:56:05;100208.38;;;7.04;82.11
64368;BME280;50692;53.314;-6.300;2022-11-20T06:58:51;100197.88;;;7.04;82.04
64368;BME280;50692;53.314;-6.300;2022-11-20T07:01:36;100203.97;;;7.05;81.81
64368;BME280;50692;53.314;-6.300;2022-11-20T07:04:22;100201.19;;;7.08;81.78
64368;BME280;50692;53.314;-6.300;2022-11-20T07:07:08;100193.41;;;7.06;81.64
64368;BME280;50692;53.314;-6.300;2022-11-20T07:09:54;100191.84;;;7.02;81.93
64368;BME280;50692;53.314;-6.300;2022-11-20T07:12:40;100193.75;;;6.99;81.73
64368;BME280;50692;53.314;-6.300;2022-11-20T07:15:26;100193.25;;;7.09;81.58
64368;BME280;50692;53.314;-6.300;2022-11-20T07:18:12;100188.84;;;7.10;81.39
64368;BME280;50692;53.314;-6.300;2022-11-20T07:21:02;100187.56;;;7.18;81.10
64368;BME280;50692;53.314;-6.300;2022-11-20T07:23:48;100181.38;;;7.19;80.75
64368;BME280;50692;53.314;-6.300;2022-11-20T07:26:34;100181.38;;;7.19;80.45
64368;BME280;50692;53.314;-6.300;2022-11-20T07:29:19;100181.38;;;7.19;80.36
64368;BME280;50692;53.314;-6.300;2022-11-20T07:32:05;100176.19;;;7.18;80.42
64368;BME280;50692;53.314;-6.300;2022-11-20T07:34:51;100195.16;;;7.25;79.92
64368;BME280;50692;53.314;-6.300;2022-11-20T07:37:37;100197.84;;;7.23;80.06
64368;BME280;50692;53.314;-6.300;2022-11-20T07:40:23;100180.59;;;7.17;80.21
64368;BME280;50692;53.314;-6.300;2022-11-20T07:43:09;100204.75;;;7.26;80.28
64368;BME280;50692;53.314;-6.300;2022-11-20T07:45:56;100199.47;;;7.26;80.10
64368;BME280;50692;53.314;-6.300;2022-11-20T07:48:41;100196.00;;;7.25;79.75
64368;BME280;50692;53.314;-6.300;2022-11-20T07:51:27;100195.41;;;7.37;78.88
64368;BME280;50692;53.314;-6.300;2022-11-20T07:54:14;100178.41;;;7.44;78.82
64368;BME280;50692;53.314;-6.300;2022-11-20T07:57:00;100183.63;;;7.46;78.68
64368;BME280;50692;53.314;-6.300;2022-11-20T07:59:46;100184.47;;;7.47;78.59
64368;BME280;50692;53.314;-6.300;2022-11-20T08:02:32;100172.16;;;7.47;78.49
64368;BME280;50692;53.314;-6.300;2022-11-20T08:05:18;100183.63;;;7.46;79.04
64368;BME280;50692;53.314;-6.300;2022-11-20T08:08:03;100177.56;;;7.44;78.96
64368;BME280;50692;53.314;-6.300;2022-11-20T08:10:49;100173.72;;;7.51;79.08
64368;BME280;50692;53.314;-6.300;2022-11-20T08:13:35;100172.81;;;7.52;79.12
64368;BME280;50692;53.314;-6.300;2022-11-20T08:16:47;100172.09;;;7.49;79.42
64368;BME280;50692;53.314;-6.300;2022-11-20T08:19:33;100164.22;;;7.49;79.44
64368;BME280;50692;53.314;-6.300;2022-11-20T08:22:19;100162.34;;;7.51;79.33
64368;BME280;50692;53.314;-6.300;2022-11-20T08:25:06;100160.50;;;7.53;79.39
64368;BME280;50692;53.314;-6.300;2022-11-20T08:27:52;100160.28;;;7.57;79.26
64368;BME280;50692;53.314;-6.300;2022-11-20T08:30:37;100154.72;;;7.63;78.90
64368;BME280;50692;53.314;-6.300;2022-11-20T08:33:23;100159.66;;;7.69;78.83
64368;BME280;50692;53.314;-6.300;2022-11-20T08:36:09;100162.91;;;7.75;78.75
64368;BME280;50692;53.314;-6.300;2022-11-20T08:38:55;100167.25;;;7.76;78.45
64368;BME280;50692;53.314;-6.300;2022-11-20T08:41:41;100170.28;;;7.85;77.78
64368;BME280;50692;53.314;-6.300;2022-11-20T08:44:27;100178.72;;;7.92;77.51
64368;BME280;50692;53.314;-6.300;2022-11-20T08:47:13;100182.94;;;7.94;77.56
64368;BME280;50692;53.314;-6.300;2022-11-20T08:49:58;100191.69;;;7.95;77.03
64368;BME280;50692;53.314;-6.300;2022-11-20T08:52:44;100192.47;;;7.97;76.65
64368;BME280;50692;53.314;-6.300;2022-11-20T08:55:30;100180.88;;;8.01;76.36
64368;BME280;50692;53.314;-6.300;2022-11-20T08:58:16;100172.81;;;8.04;76.27
64368;BME280;50692;53.314;-6.300;2022-11-20T09:01:02;100160.59;;;8.03;75.93
64368;BME280;50692;53.314;-6.300;2022-11-20T09:03:48;100163.22;;;8.03;75.55
64368;BME280;50692;53.314;-6.300;2022-11-20T09:06:34;100163.13;;;8.05;75.68
64368;BME280;50692;53.314;-6.300;2022-11-20T09:09:20;100154.31;;;8.06;75.61
64368;BME280;50692;53.314;-6.300;2022-11-20T09:12:06;100147.59;;;8.00;75.69
64368;BME280;50692;53.314;-6.300;2022-11-20T09:14:51;100148.44;;;8.01;75.92
64368;BME280;50692;53.314;-6.300;2022-11-20T09:17:37;100142.47;;;7.97;75.75
64368;BME280;50692;53.314;-6.300;2022-11-20T09:20:24;100129.41;;;7.96;75.68
64368;BME280;50692;53.314;-6.300;2022-11-20T09:23:10;100119.72;;;7.96;75.93
64368;BME280;50692;53.314;-6.300;2022-11-20T09:25:55;100120.72;;;7.93;75.90
64368;BME280;50692;53.314;-6.300;2022-11-20T09:28:45;100099.94;;;7.89;76.04
64368;BME280;50692;53.314;-6.300;2022-11-20T09:31:31;100088.00;;;7.99;75.88
64368;BME280;50692;53.314;-6.300;2022-11-20T09:34:16;100080.84;;;8.01;76.02
64368;BME280;50692;53.314;-6.300;2022-11-20T09:37:02;100079.91;;;8.02;75.48
64368;BME280;50692;53.314;-6.300;2022-11-20T09:39:48;100082.22;;;8.08;75.46
64368;BME280;50692;53.314;-6.300;2022-11-20T09:49:32;100093.84;;;8.04;76.19
64368;BME280;50692;53.314;-6.300;2022-11-20T09:55:09;100113.28;;;8.02;75.81
64368;BME280;50692;53.314;-6.300;2022-11-20T09:57:57;100101.34;;;8.12;75.86
64368;BME280;50692;53.314;-6.300;2022-11-20T10:00:45;100095.06;;;8.14;75.92
64368;BME280;50692;53.314;-6.300;2022-11-20T10:03:58;100124.72;;;8.18;75.95
64368;BME280;50692;53.314;-6.300;2022-11-20T10:07:07;100096.53;;;8.20;75.78
64368;BME280;50692;53.314;-6.300;2022-11-20T10:09:56;100103.50;;;8.21;75.67
64368;BME280;50692;53.314;-6.300;2022-11-20T10:18:44;100102.47;;;8.41;74.90
64368;BME280;50692;53.314;-6.300;2022-11-20T10:21:56;100096.78;;;8.49;74.86
64368;BME280;50692;53.314;-6.300;2022-11-20T10:25:13;100107.09;;;8.53;74.79
64368;BME280;50692;53.314;-6.300;2022-11-20T10:28:24;100107.56;;;8.44;74.16
64368;BME280;50692;53.314;-6.300;2022-11-20T10:31:34;100106.63;;;8.45;74.21
64368;BME280;50692;53.314;-6.300;2022-11-20T10:37:27;100118.47;;;8.54;74.15
64368;BME280;50692;53.314;-6.300;2022-11-20T10:40:34;100113.63;;;8.62;73.76
64368;BME280;50692;53.314;-6.300;2022-11-20T10:43:32;100125.38;;;8.72;73.58
64368;BME280;50692;53.314;-6.300;2022-11-20T10:46:20;100129.78;;;8.72;73.75
64368;BME280;50692;53.314;-6.300;2022-11-20T10:49:14;100144.91;;;8.84;73.81
64368;BME280;50692;53.314;-6.300;2022-11-20T10:55:32;100149.31;;;9.47;72.22
64368;BME280;50692;53.314;-6.300;2022-11-20T11:01:17;100153.13;;;9.87;69.16
64368;BME280;50692;53.314;-6.300;2022-11-20T11:04:57;100161.19;;;10.00;69.75
64368;BME280;50692;53.314;-6.300;2022-11-20T11:07:23;100165.91;;;10.53;67.65
64368;BME280;50692;53.314;-6.300;2022-11-20T11:10:15;100165.25;;;11.05;65.49
64368;BME280;50692;53.314;-6.300;2022-11-20T11:13:01;100179.84;;;11.40;63.92
64368;BME280;50692;53.314;-6.300;2022-11-20T11:15:47;100186.66;;;11.29;62.80
64368;BME280;50692;53.314;-6.300;2022-11-20T11:18:34;100186.75;;;10.87;63.43
64368;BME280;50692;53.314;-6.300;2022-11-20T11:21:25;100189.56;;;10.41;64.18
64368;BME280;50692;53.314;-6.300;2022-11-20T11:24:21;100196.69;;;9.94;65.00
64368;BME280;50692;53.314;-6.300;2022-11-20T11:27:13;100186.03;;;9.81;65.78
64368;BME280;50692;53.314;-6.300;2022-11-20T11:30:12;100186.88;;;9.82;66.35
64368;BME280;50692;53.314;-6.300;2022-11-20T11:33:09;100170.22;;;10.40;64.47
64368;BME280;50692;53.314;-6.300;2022-11-20T11:35:58;100179.44;;;11.04;62.30
64368;BME280;50692;53.314;-6.300;2022-11-20T11:38:44;100174.47;;;11.27;60.50
64368;BME280;50692;53.314;-6.300;2022-11-20T11:41:33;100158.56;;;11.81;60.02
64368;BME280;50692;53.314;-6.300;2022-11-20T11:44:33;100142.88;;;12.18;57.67
64368;BME280;50692;53.314;-6.300;2022-11-20T11:50:28;100159.94;;;12.65;56.14
64368;BME280;50692;53.314;-6.300;2022-11-20T11:53:17;100169.00;;;12.86;55.77
64368;BME280;50692;53.314;-6.300;2022-11-20T11:56:08;100170.94;;;12.08;57.83
64368;BME280;50692;53.314;-6.300;2022-11-20T11:58:57;100188.13;;;11.48;61.67
64368;BME280;50692;53.314;-6.300;2022-11-20T12:01:55;100182.44;;;11.54;61.93
64368;BME280;50692;53.314;-6.300;2022-11-20T12:04:48;100187.38;;;12.13;61.59
64368;BME280;50692;53.314;-6.300;2022-11-20T12:07:45;100049.25;;;11.53;59.37
64368;BME280;50692;53.314;-6.300;2022-11-20T12:16:43;100185.38;;;14.13;53.72
64368;BME280;50692;53.314;-6.300;2022-11-20T12:19:31;100205.22;;;14.31;51.36
64368;BME280;50692;53.314;-6.300;2022-11-20T12:34:31;100191.53;;;14.25;49.49
64368;BME280;50692;53.314;-6.300;2022-11-20T12:41:00;100186.31;;;14.01;50.59
64368;BME280;50692;53.314;-6.300;2022-11-20T12:44:07;100194.78;;;14.17;50.05
64368;BME280;50692;53.314;-6.300;2022-11-20T12:50:59;100182.50;;;14.27;49.82
64368;BME280;50692;53.314;-6.300;2022-11-20T12:56:56;100179.69;;;14.86;48.70
64368;BME280;50692;53.314;-6.300;2022-11-20T12:59:53;100192.97;;;15.09;47.89
64368;BME280;50692;53.314;-6.300;2022-11-20T13:06:10;100201.13;;;15.51;46.85
64368;BME280;50692;53.314;-6.300;2022-11-20T13:08:57;100191.66;;;15.69;46.07
64368;BME280;50692;53.314;-6.300;2022-11-20T13:11:47;100188.19;;;15.35;47.24
64368;BME280;50692;53.314;-6.300;2022-11-20T13:15:05;100187.84;;;15.28;47.47
64368;BME280;50692;53.314;-6.300;2022-11-20T13:18:01;100192.50;;;15.58;47.39
64368;BME280;50692;53.314;-6.300;2022-11-20T13:20:49;100200.34;;;15.71;47.05
64368;BME280;50692;53.314;-6.300;2022-11-20T13:23:35;100204.44;;;15.75;45.85
64368;BME280;50692;53.314;-6.300;2022-11-20T13:26:23;100191.47;;;15.82;45.79
64368;BME280;50692;53.314;-6.300;2022-11-20T13:29:16;100208.19;;;15.84;45.25
64368;BME280;50692;53.314;-6.300;2022-11-20T13:32:14;100205.72;;;15.49;45.19
64368;BME280;50692;53.314;-6.300;2022-11-20T13:35:03;100193.34;;;15.70;44.87
64368;BME280;50692;53.314;-6.300;2022-11-20T13:38:05;100194.19;;;15.71;43.73
64368;BME280;50692;53.314;-6.300;2022-11-20T13:43:41;100204.47;;;15.64;43.24
64368;BME280;50692;53.314;-6.300;2022-11-20T13:46:39;100212.25;;;15.56;42.91
64368;BME280;50692;53.314;-6.300;2022-11-20T13:49:29;100212.44;;;15.64;42.01
64368;BME280;50692;53.314;-6.300;2022-11-20T13:55:47;100215.06;;;15.87;41.59
64368;BME280;50692;53.314;-6.300;2022-11-20T13:59:07;100216.56;;;16.00;41.05
64368;BME280;50692;53.314;-6.300;2022-11-20T14:01:58;100238.13;;;15.76;40.72
64368;BME280;50692;53.314;-6.300;2022-11-20T14:04:52;100223.03;;;15.43;41.29
64368;BME280;50692;53.314;-6.300;2022-11-20T14:07:40;100219.06;;;15.38;41.83
64368;BME280;50692;53.314;-6.300;2022-11-20T14:10:28;100224.75;;;15.44;40.80
64368;BME280;50692;53.314;-6.300;2022-11-20T14:13:19;100226.81;;;15.18;41.66
64368;BME280;50692;53.314;-6.300;2022-11-20T14:16:05;100237.38;;;15.20;41.55
64368;BME280;50692;53.314;-6.300;2022-11-20T14:18:51;100229.16;;;14.31;43.01
64368;BME280;50692;53.314;-6.300;2022-11-20T14:21:37;100238.41;;;13.42;45.37
64368;BME280;50692;53.314;-6.300;2022-11-20T14:24:24;100244.34;;;12.84;47.15
64368;BME280;50692;53.314;-6.300;2022-11-20T14:27:18;100244.19;;;12.34;48.60
64368;BME280;50692;53.314;-6.300;2022-11-20T14:30:12;100261.22;;;12.17;49.65
64368;BME280;50692;53.314;-6.300;2022-11-20T14:33:02;100256.16;;;12.14;50.31
64368;BME280;50692;53.314;-6.300;2022-11-20T14:35:54;100254.56;;;12.12;51.17
64368;BME280;50692;53.314;-6.300;2022-11-20T14:38:40;100247.97;;;12.05;51.43
64368;BME280;50692;53.314;-6.300;2022-11-20T14:41:28;100253.72;;;11.84;52.52
64368;BME280;50692;53.314;-6.300;2022-11-20T14:44:14;100251.91;;;11.58;53.77
64368;BME280;50692;53.314;-6.300;2022-11-20T14:47:01;100252.44;;;11.21;55.49
64368;BME280;50692;53.314;-6.300;2022-11-20T14:49:50;100250.47;;;10.96;56.36
64368;BME280;50692;53.314;-6.300;2022-11-20T14:52:36;100251.59;;;10.92;57.07
64368;BME280;50692;53.314;-6.300;2022-11-20T14:55:37;100246.97;;;10.96;57.08
64368;BME280;50692;53.314;-6.300;2022-11-20T14:58:28;100247.94;;;11.50;56.29
64368;BME280;50692;53.314;-6.300;2022-11-20T15:01:26;100242.22;;;11.98;54.82
64368;BME280;50692;53.314;-6.300;2022-11-20T15:04:13;100253.63;;;11.86;55.40
64368;BME280;50692;53.314;-6.300;2022-11-20T15:06:59;100265.03;;;11.59;56.58
64368;BME280;50692;53.314;-6.300;2022-11-20T15:09:45;100264.53;;;11.11;58.61
64368;BME280;50692;53.314;-6.300;2022-11-20T15:12:32;100265.41;;;10.83;59.82
64368;BME280;50692;53.314;-6.300;2022-11-20T15:15:28;100274.81;;;10.59;60.86
64368;BME280;50692;53.314;-6.300;2022-11-20T15:18:20;100264.66;;;10.37;61.97
64368;BME280;50692;53.314;-6.300;2022-11-20T15:21:17;100264.28;;;10.28;62.51
64368;BME280;50692;53.314;-6.300;2022-11-20T15:24:08;100261.91;;;10.08;63.22
64368;BME280;50692;53.314;-6.300;2022-11-20T15:26:54;100267.00;;;10.11;63.33
64368;BME280;50692;53.314;-6.300;2022-11-20T15:29:41;100264.16;;;10.00;63.79
64368;BME280;50692;53.314;-6.300;2022-11-20T15:32:27;100269.22;;;9.73;65.16
64368;BME280;50692;53.314;-6.300;2022-11-20T15:35:14;100272.53;;;9.76;64.67
64368;BME280;50692;53.314;-6.300;2022-11-20T15:38:00;100277.97;;;9.73;64.43
64368;BME280;50692;53.314;-6.300;2022-11-20T15:40:46;100286.47;;;9.63;64.53
64368;BME280;50692;53.314;-6.300;2022-11-20T15:43:32;100290.25;;;9.58;64.77
64368;BME280;50692;53.314;-6.300;2022-11-20T15:46:25;100268.47;;;9.39;64.86
64368;BME280;50692;53.314;-6.300;2022-11-20T15:49:14;100277.47;;;9.35;65.30
64368;BME280;50692;53.314;-6.300;2022-11-20T15:52:00;100288.78;;;9.37;64.91
64368;BME280;50692;53.314;-6.300;2022-11-20T15:54:46;100289.31;;;9.28;65.07